createdAt,value
2023-05-08T00:03:49.083Z,75.45
2023-05-08T00:08:51.000Z,75.54
2023-05-08T00:13:52.417Z,76.08
2023-05-08T00:18:54.845Z,76.12
2023-05-08T00:23:56.284Z,76.25
2023-05-08T00:28:57.706Z,76.62
2023-05-08T00:33:59.148Z,76.71
2023-05-08T00:39:00.633Z,77.52
2023-05-08T00:44:02.107Z,77.92
2023-05-08T00:49:05.845Z,77.91
2023-05-08T00:54:07.376Z,77.60
2023-05-08T00:59:13.667Z,78.24
2023-05-08T01:04:15.163Z,78.29
2023-05-08T01:09:16.585Z,78.59
2023-05-08T01:14:29.880Z,79.06
2023-05-08T01:19:43.192Z,79.09
2023-05-08T01:25:12.482Z,78.86
2023-05-08T01:30:13.997Z,79.38
2023-05-08T01:35:29.126Z,80.04
2023-05-08T01:40:45.965Z,79.90
2023-05-08T01:45:50.120Z,80.31
2023-05-08T01:51:00.647Z,80.46
2023-05-08T01:56:09.574Z,80.35
2023-05-08T02:01:13.781Z,80.53
2023-05-08T02:06:17.765Z,80.46
2023-05-08T02:11:21.655Z,80.38
2023-05-08T02:16:25.802Z,80.50
2023-05-08T02:21:28.688Z,80.82
2023-05-08T02:26:32.033Z,80.20
2023-05-08T02:31:34.748Z,80.49
2023-05-08T02:36:38.238Z,80.80
2023-05-08T02:41:41.158Z,80.81
2023-05-08T02:47:07.235Z,80.56
2023-05-08T02:52:14.243Z,80.83
2023-05-08T02:57:37.616Z,80.84
2023-05-08T03:02:48.406Z,80.58
2023-05-08T03:07:52.879Z,81.02
2023-05-08T03:12:56.832Z,80.72
2023-05-08T03:18:04.476Z,81.08
2023-05-08T03:23:09.045Z,81.18
2023-05-08T03:28:11.539Z,80.77
2023-05-08T03:33:13.964Z,81.02
2023-05-08T03:38:16.295Z,80.97
2023-05-08T03:43:19.413Z,81.68
2023-05-08T03:48:22.835Z,81.38
2023-05-08T03:53:24.720Z,81.69
2023-05-08T03:58:48.635Z,81.83
2023-05-08T04:03:54.541Z,81.67
2023-05-08T04:09:08.502Z,81.54
2023-05-08T04:14:16.291Z,81.75
2023-05-08T04:19:27.498Z,81.44
2023-05-08T04:24:30.416Z,80.85
2023-05-08T04:29:33.359Z,81.04
2023-05-08T04:34:35.715Z,80.45
2023-05-08T04:39:37.136Z,81.08
2023-05-08T04:44:38.581Z,80.54
2023-05-08T04:49:40.072Z,81.30
2023-05-08T04:54:42.521Z,80.29
2023-05-08T04:59:43.965Z,80.71
2023-05-08T05:04:45.426Z,80.27
2023-05-08T05:09:46.839Z,78.14
2023-05-08T05:14:48.298Z,78.39
2023-05-08T05:19:50.943Z,76.70
2023-05-08T05:24:53.571Z,76.28
2023-05-08T05:29:55.024Z,76.93
2023-05-08T05:34:56.852Z,76.63
2023-05-08T05:39:58.275Z,77.19
2023-05-08T05:44:59.720Z,75.75
2023-05-08T05:50:01.398Z,74.05
2023-05-08T05:55:03.124Z,74.32
2023-05-08T06:00:05.949Z,73.63
2023-05-08T06:05:08.493Z,72.68
2023-05-08T06:10:10.995Z,69.67
2023-05-08T06:15:14.786Z,69.99
2023-05-08T06:20:16.452Z,68.60
2023-05-08T06:25:17.939Z,69.00
2023-05-08T06:30:19.515Z,69.04
2023-05-08T06:35:20.964Z,65.37
2023-05-08T06:40:23.606Z,64.46
2023-05-08T06:45:25.149Z,63.33
2023-05-08T06:50:26.798Z,64.38
2023-05-08T06:55:28.323Z,63.72
2023-05-08T07:00:29.778Z,62.89
2023-05-08T07:05:31.203Z,61.47
2023-05-08T07:10:32.626Z,63.35
2023-05-08T07:15:34.133Z,61.29
2023-05-08T07:20:35.711Z,60.37
2023-05-08T07:25:37.256Z,61.07
2023-05-08T07:30:38.669Z,58.98
2023-05-08T07:35:40.950Z,59.04
2023-05-08T07:40:42.385Z,58.83
2023-05-08T07:45:43.827Z,57.54
2023-05-08T07:50:45.670Z,56.89
2023-05-08T07:55:47.145Z,58.17
2023-05-08T08:00:48.583Z,58.78
2023-05-08T08:05:50.035Z,57.80
2023-05-08T08:10:51.473Z,57.79
2023-05-08T08:15:52.990Z,57.32
2023-05-08T08:20:54.438Z,56.66
2023-05-08T08:25:55.875Z,57.16
2023-05-08T08:30:57.424Z,55.81
2023-05-08T08:35:58.858Z,57.60
2023-05-08T08:41:00.358Z,55.09
2023-05-08T08:46:11.738Z,54.81
2023-05-08T08:51:28.429Z,54.65
2023-05-08T08:56:31.298Z,54.32
2023-05-08T09:01:39.675Z,53.53
2023-05-08T09:06:41.306Z,53.80
2023-05-08T09:11:46.020Z,52.71
2023-05-08T09:16:47.618Z,52.13
2023-05-08T09:21:49.209Z,50.74
2023-05-08T09:26:50.745Z,52.68
2023-05-08T09:31:53.196Z,50.75
2023-05-08T09:37:11.772Z,50.49
2023-05-08T09:42:13.894Z,50.18
2023-05-08T09:47:17.381Z,50.70
2023-05-08T09:52:18.845Z,50.00
2023-05-08T09:57:20.288Z,50.57
2023-05-08T10:02:21.807Z,49.57
2023-05-08T10:07:33.985Z,51.01
2023-05-08T10:12:37.863Z,50.10
2023-05-08T10:18:07.050Z,49.17
2023-05-08T10:23:13.740Z,48.77
2023-05-08T10:28:29.116Z,49.30
2023-05-08T10:33:32.028Z,49.27
2023-05-08T10:38:34.740Z,46.82
2023-05-08T10:43:41.304Z,48.63
2023-05-08T10:49:04.822Z,48.60
2023-05-08T10:54:12.893Z,47.31
2023-05-08T10:59:21.206Z,47.47
2023-05-08T11:04:23.879Z,47.67
2023-05-08T11:09:30.341Z,46.62
2023-05-08T11:14:33.474Z,47.91
2023-05-08T11:19:35.946Z,47.59
2023-05-08T11:24:39.034Z,46.51
2023-05-08T11:29:40.618Z,46.48
2023-05-08T11:34:42.180Z,46.39
2023-05-08T11:39:43.969Z,47.32
2023-05-08T11:44:45.631Z,47.25
2023-05-08T11:49:47.204Z,47.04
2023-05-08T11:54:48.864Z,46.39
2023-05-08T11:59:51.263Z,45.27
2023-05-08T12:04:53.118Z,44.79
2023-05-08T12:09:54.635Z,45.69
2023-05-08T12:14:56.057Z,45.89
2023-05-08T12:20:03.946Z,45.86
2023-05-08T12:25:07.105Z,45.31
2023-05-08T12:30:11.653Z,44.71
2023-05-08T12:35:14.071Z,44.00
2023-05-08T12:40:31.381Z,43.52
2023-05-08T12:45:35.807Z,44.90
2023-05-08T12:50:40.135Z,45.12
2023-05-08T12:55:52.749Z,44.54
2023-05-08T13:01:07.566Z,44.04
2023-05-08T13:06:20.875Z,44.21
2023-05-08T13:11:33.224Z,44.21
2023-05-08T13:16:45.173Z,43.87
2023-05-08T13:21:47.786Z,43.69
2023-05-08T13:26:49.213Z,43.78
2023-05-08T13:31:50.711Z,44.56
2023-05-08T13:36:52.519Z,44.89
2023-05-08T13:41:53.963Z,44.75
2023-05-08T13:46:55.468Z,46.29
2023-05-08T13:51:57.312Z,42.85
2023-05-08T13:56:58.995Z,43.41
2023-05-08T14:02:00.527Z,43.61
2023-05-08T14:07:02.136Z,42.97
2023-05-08T14:12:04.164Z,42.98
2023-05-08T14:17:06.072Z,44.05
2023-05-08T14:22:07.554Z,43.83
2023-05-08T14:27:08.994Z,43.75
2023-05-08T14:32:11.056Z,43.27
2023-05-08T14:37:13.091Z,43.56
2023-05-08T14:42:22.742Z,43.09
2023-05-08T14:47:24.799Z,42.66
2023-05-08T14:52:26.322Z,42.55
2023-05-08T14:57:27.770Z,42.39
2023-05-08T15:02:29.298Z,42.58
2023-05-08T15:07:31.015Z,40.71
2023-05-08T15:12:32.782Z,42.26
2023-05-08T15:17:37.263Z,42.01
2023-05-08T15:22:38.833Z,41.23
2023-05-08T15:27:41.640Z,42.14
2023-05-08T15:32:43.454Z,42.10
2023-05-08T15:37:45.032Z,41.70
2023-05-08T15:42:46.661Z,40.70
2023-05-08T15:47:48.115Z,40.74
2023-05-08T15:52:49.824Z,41.03
2023-05-08T15:57:51.343Z,41.14
2023-05-08T16:02:52.870Z,40.50
2023-05-08T16:07:55.604Z,41.47
2023-05-08T16:12:57.119Z,41.45
2023-05-08T16:17:59.385Z,42.38
2023-05-08T16:23:00.829Z,41.40
2023-05-08T16:28:02.357Z,42.02
2023-05-08T16:33:04.476Z,41.53
2023-05-08T16:38:06.404Z,41.98
2023-05-08T16:43:08.715Z,41.95
2023-05-08T16:48:10.391Z,41.21
2023-05-08T16:53:11.838Z,42.27
2023-05-08T16:58:13.276Z,42.69
2023-05-08T17:03:14.794Z,42.78
2023-05-08T17:08:16.484Z,42.72
2023-05-08T17:13:18.134Z,42.94
2023-05-08T17:18:19.753Z,43.31
2023-05-08T17:23:21.183Z,43.34
2023-05-08T17:28:22.633Z,43.44
2023-05-08T17:33:24.184Z,44.09
2023-05-08T17:38:25.683Z,44.08
2023-05-08T17:43:28.610Z,45.52
2023-05-08T17:48:30.151Z,45.22
2023-05-08T17:53:32.355Z,45.15
2023-05-08T17:58:33.849Z,45.77
2023-05-08T18:03:36.011Z,46.12
2023-05-08T18:08:38.720Z,46.25
2023-05-08T18:13:41.054Z,46.32
2023-05-08T18:18:42.524Z,47.15
2023-05-08T18:23:44.327Z,47.19
2023-05-08T18:28:45.763Z,47.83
2023-05-08T18:33:47.776Z,48.49
2023-05-08T18:38:49.196Z,49.21
2023-05-08T18:43:50.599Z,49.96
2023-05-08T18:48:52.011Z,49.82
2023-05-08T18:53:54.046Z,50.50
2023-05-08T18:58:55.472Z,50.50
2023-05-08T19:03:57.048Z,50.77
2023-05-08T19:08:58.509Z,51.42
2023-05-08T19:13:59.930Z,51.78
2023-05-08T19:19:01.379Z,52.35
2023-05-08T19:24:02.964Z,52.63
2023-05-08T19:29:04.465Z,52.73
2023-05-08T19:34:05.995Z,52.58
2023-05-08T19:39:07.595Z,53.01
2023-05-08T19:44:09.270Z,53.16
2023-05-08T19:49:11.029Z,53.70
2023-05-08T19:54:12.442Z,53.70
2023-05-08T19:59:13.864Z,53.90
2023-05-08T20:04:15.311Z,55.05
2023-05-08T20:09:17.152Z,54.65
2023-05-08T20:14:18.584Z,54.88
2023-05-08T20:19:20.024Z,55.01
2023-05-08T20:24:21.460Z,55.14
2023-05-08T20:29:23.992Z,55.58
2023-05-08T20:34:25.547Z,55.98
2023-05-08T20:39:27.372Z,57.19
2023-05-08T20:44:28.784Z,57.00
2023-05-08T20:49:30.189Z,56.84
2023-05-08T20:54:31.766Z,57.30
2023-05-08T20:59:33.174Z,57.43
2023-05-08T21:04:34.618Z,57.58
2023-05-08T21:09:36.051Z,57.79
2023-05-08T21:14:37.517Z,57.72
2023-05-08T21:19:39.073Z,58.21
2023-05-08T21:24:44.352Z,58.46
2023-05-08T21:29:45.806Z,58.90
2023-05-08T21:34:47.273Z,58.76
2023-05-08T21:39:48.689Z,59.19
2023-05-08T21:44:50.175Z,59.35
2023-05-08T21:49:51.668Z,59.59
2023-05-08T21:54:53.174Z,59.96
2023-05-08T21:59:54.597Z,60.36
2023-05-08T22:04:56.005Z,60.53
2023-05-08T22:09:57.428Z,60.95
2023-05-08T22:14:58.849Z,61.29
2023-05-08T22:20:00.266Z,61.39
2023-05-08T22:25:01.906Z,61.60
2023-05-08T22:30:03.697Z,62.07
2023-05-08T22:35:06.543Z,62.59
2023-05-08T22:40:08.539Z,62.49
2023-05-08T22:45:11.746Z,63.21
2023-05-08T22:50:13.337Z,62.59
2023-05-08T22:55:15.754Z,62.61
2023-05-08T23:00:17.770Z,62.98
2023-05-08T23:05:19.253Z,62.62
2023-05-08T23:10:20.752Z,62.86
2023-05-08T23:15:22.159Z,63.02
2023-05-08T23:20:23.641Z,63.28
2023-05-08T23:25:25.259Z,63.36
2023-05-08T23:30:26.772Z,63.48
2023-05-08T23:35:28.454Z,63.33
2023-05-08T23:40:29.877Z,63.71
2023-05-08T23:45:31.319Z,63.75
2023-05-08T23:50:33.011Z,64.28
2023-05-08T23:55:37.840Z,64.34
